createdAt,value
2022-08-25T00:00:01.173Z,0.00
2022-08-25T00:01:01.150Z,0.00
2022-08-25T00:02:03.036Z,0.00
2022-08-25T00:03:01.153Z,0.00
2022-08-25T00:04:01.807Z,0.00
2022-08-25T00:05:01.142Z,0.00
2022-08-25T00:06:01.134Z,0.00
2022-08-25T00:07:03.403Z,0.00
2022-08-25T00:08:01.176Z,0.00
2022-08-25T00:09:01.065Z,0.00
2022-08-25T00:10:01.073Z,0.00
2022-08-25T00:11:03.558Z,0.00
2022-08-25T00:12:01.068Z,0.00
2022-08-25T00:13:01.065Z,0.00
2022-08-25T00:14:01.067Z,0.00
2022-08-25T00:15:01.391Z,0.00
2022-08-25T00:16:01.040Z,0.00
2022-08-25T00:17:01.678Z,0.00
2022-08-25T00:18:01.149Z,0.00
2022-08-25T00:19:01.050Z,0.00
2022-08-25T00:20:00.935Z,0.00
2022-08-25T00:21:00.909Z,0.00
2022-08-25T00:22:00.945Z,0.00
2022-08-25T00:23:00.865Z,0.00
2022-08-25T00:24:00.875Z,0.00
2022-08-25T00:25:00.850Z,0.00
2022-08-25T00:26:00.843Z,0.00
2022-08-25T00:27:00.850Z,0.00
2022-08-25T00:28:03.091Z,0.00
2022-08-25T00:29:02.239Z,0.00
2022-08-25T00:30:00.844Z,0.00
2022-08-25T00:31:00.881Z,0.00
2022-08-25T00:32:01.028Z,0.00
2022-08-25T00:33:00.813Z,0.00
2022-08-25T00:34:00.720Z,0.00
2022-08-25T00:35:00.709Z,0.00
2022-08-25T00:36:00.705Z,0.00
2022-08-25T00:37:00.717Z,0.00
2022-08-25T00:38:00.730Z,0.00
2022-08-25T00:39:01.376Z,0.00
2022-08-25T00:40:00.709Z,0.00
2022-08-25T00:41:00.718Z,0.00
2022-08-25T00:42:00.707Z,0.00
2022-08-25T00:43:00.610Z,0.00
2022-08-25T00:44:00.610Z,0.00
2022-08-25T00:45:00.706Z,0.00
2022-08-25T00:46:00.598Z,0.00
2022-08-25T00:47:00.615Z,0.00
2022-08-25T00:48:00.622Z,0.00
2022-08-25T00:49:00.528Z,0.00
2022-08-25T00:50:00.523Z,0.00
2022-08-25T00:51:00.506Z,0.00
2022-08-25T00:52:00.558Z,0.00
2022-08-25T00:53:00.562Z,0.00
2022-08-25T00:54:00.468Z,0.00
2022-08-25T00:55:05.737Z,0.00
2022-08-25T00:56:01.459Z,0.00
2022-08-25T00:57:00.482Z,0.00
2022-08-25T00:58:00.409Z,0.00
2022-08-25T00:59:00.418Z,0.00
2022-08-25T01:00:00.469Z,0.00
2022-08-25T01:01:00.385Z,0.00
2022-08-25T01:02:00.443Z,0.00
2022-08-25T01:03:00.449Z,0.00
2022-08-25T01:04:00.323Z,0.00
2022-08-25T01:05:00.319Z,0.00
2022-08-25T01:06:00.313Z,0.00
2022-08-25T01:07:00.355Z,0.00
2022-08-25T01:08:00.404Z,0.00
2022-08-25T01:09:00.260Z,0.00
2022-08-25T01:10:00.293Z,0.00
2022-08-25T01:11:00.250Z,0.00
2022-08-25T01:12:00.291Z,0.00
2022-08-25T01:13:00.209Z,0.00
2022-08-25T01:14:00.225Z,0.00
2022-08-25T01:15:00.239Z,0.00
2022-08-25T01:16:00.321Z,0.00
2022-08-25T01:17:00.179Z,0.00
2022-08-25T01:18:00.224Z,0.00
2022-08-25T01:19:00.144Z,0.00
2022-08-25T01:20:00.131Z,0.00
2022-08-25T01:21:00.120Z,0.00
2022-08-25T01:22:00.164Z,0.00
2022-08-25T01:23:00.156Z,0.00
2022-08-25T01:24:00.077Z,0.00
2022-08-25T01:25:00.140Z,0.00
2022-08-25T01:26:00.070Z,0.00
2022-08-25T01:27:00.054Z,0.00
2022-08-25T01:28:00.072Z,0.00
2022-08-25T01:29:00.014Z,0.00
2022-08-25T01:29:59.998Z,0.00
2022-08-25T01:31:00.064Z,0.00
2022-08-25T01:31:59.967Z,0.00
2022-08-25T01:32:59.944Z,0.00
2022-08-25T01:33:59.926Z,0.00
2022-08-25T01:34:59.966Z,0.00
2022-08-25T01:35:59.988Z,0.00
2022-08-25T01:36:59.889Z,0.00
2022-08-25T01:37:59.903Z,0.00
2022-08-25T01:39:00.182Z,0.00
2022-08-25T01:39:59.922Z,0.00
2022-08-25T01:40:59.833Z,0.00
2022-08-25T01:41:59.852Z,0.00
2022-08-25T01:42:59.814Z,0.00
2022-08-25T01:43:59.823Z,0.00
2022-08-25T01:44:59.842Z,0.00
2022-08-25T01:46:03.536Z,0.00
2022-08-25T01:46:59.766Z,0.00
2022-08-25T01:47:59.847Z,0.00
2022-08-25T01:49:02.749Z,0.00
2022-08-25T01:50:04.609Z,0.00
2022-08-25T01:50:59.723Z,0.00
2022-08-25T01:51:59.697Z,0.00
2022-08-25T01:52:59.686Z,0.00
2022-08-25T01:53:59.668Z,0.00
2022-08-25T01:54:59.653Z,0.00
2022-08-25T01:55:59.684Z,0.00
2022-08-25T01:56:59.722Z,0.00
2022-08-25T01:57:59.663Z,0.00
2022-08-25T01:58:59.599Z,0.00
2022-08-25T01:59:59.592Z,0.00
2022-08-25T02:00:59.646Z,0.00
2022-08-25T02:02:00.336Z,0.00
2022-08-25T02:02:59.609Z,0.00
2022-08-25T02:03:59.550Z,0.00
2022-08-25T02:04:59.622Z,0.00
2022-08-25T02:05:59.512Z,0.00
2022-08-25T02:06:59.506Z,0.00
2022-08-25T02:07:59.485Z,0.00
2022-08-25T02:08:59.547Z,0.00
2022-08-25T02:10:03.322Z,0.00
2022-08-25T02:11:03.376Z,0.00
2022-08-25T02:11:59.436Z,0.00
2022-08-25T02:12:59.462Z,0.00
2022-08-25T02:13:59.403Z,0.00
2022-08-25T02:14:59.377Z,0.00
2022-08-25T02:15:59.377Z,0.00
2022-08-25T02:16:59.441Z,0.00
2022-08-25T02:17:59.406Z,0.00
2022-08-25T02:18:59.393Z,0.00
2022-08-25T02:19:59.339Z,0.00
2022-08-25T02:20:59.376Z,0.00
2022-08-25T02:21:59.323Z,0.00
2022-08-25T02:23:03.237Z,0.00
2022-08-25T02:23:59.265Z,0.00
2022-08-25T02:24:59.251Z,0.00
2022-08-25T02:25:59.344Z,0.00
2022-08-25T02:26:59.261Z,0.00
2022-08-25T02:27:59.239Z,0.00
2022-08-25T02:28:59.199Z,0.00
2022-08-25T02:29:59.205Z,0.00
2022-08-25T02:31:01.659Z,0.00
2022-08-25T02:31:59.184Z,0.00
2022-08-25T02:32:59.171Z,0.00
2022-08-25T02:33:59.181Z,0.00
2022-08-25T02:34:59.129Z,0.00
2022-08-25T02:35:59.111Z,0.00
2022-08-25T02:36:59.138Z,0.00
2022-08-25T02:37:59.173Z,0.00
2022-08-25T02:38:59.094Z,0.00
2022-08-25T02:39:59.805Z,0.00
2022-08-25T02:41:02.794Z,0.00
2022-08-25T02:41:59.052Z,0.00
2022-08-25T02:42:59.063Z,0.00
2022-08-25T02:43:59.023Z,0.00
2022-08-25T02:44:58.998Z,0.00
2022-08-25T02:45:59.119Z,0.00
2022-08-25T02:46:58.970Z,0.00
2022-08-25T02:47:58.976Z,0.00
2022-08-25T02:48:58.940Z,0.00
2022-08-25T02:49:58.995Z,0.00
2022-08-25T02:50:58.969Z,0.00
2022-08-25T02:51:58.914Z,0.00
2022-08-25T02:52:58.966Z,0.00
2022-08-25T02:53:58.877Z,0.00
2022-08-25T02:54:58.871Z,0.00
2022-08-25T02:55:58.862Z,0.00
2022-08-25T02:56:58.840Z,0.00
2022-08-25T02:57:58.849Z,0.00
2022-08-25T02:58:58.803Z,0.00
2022-08-25T02:59:58.810Z,0.00
2022-08-25T03:00:58.879Z,0.00
2022-08-25T03:01:58.773Z,0.00
2022-08-25T03:02:58.748Z,0.00
2022-08-25T03:03:58.774Z,0.00
2022-08-25T03:04:58.857Z,0.00
2022-08-25T03:05:58.712Z,0.00
2022-08-25T03:06:58.712Z,0.00
2022-08-25T03:07:58.687Z,0.00
2022-08-25T03:08:58.682Z,0.00
2022-08-25T03:09:58.709Z,0.00
2022-08-25T03:10:58.652Z,0.00
2022-08-25T03:11:58.671Z,0.00
2022-08-25T03:12:58.620Z,0.00
2022-08-25T03:13:58.613Z,0.00
2022-08-25T03:14:58.591Z,0.00
2022-08-25T03:15:58.623Z,0.00
2022-08-25T03:16:58.682Z,0.00
2022-08-25T03:17:59.816Z,0.00
2022-08-25T03:18:58.543Z,0.00
2022-08-25T03:19:58.534Z,0.00
2022-08-25T03:20:58.529Z,0.00
2022-08-25T03:21:58.526Z,0.00
2022-08-25T03:22:58.497Z,0.00
2022-08-25T03:23:58.470Z,0.00
2022-08-25T03:24:58.482Z,0.00
2022-08-25T03:25:58.460Z,0.00
2022-08-25T03:26:58.457Z,0.00
2022-08-25T03:27:58.470Z,0.00
2022-08-25T03:28:58.479Z,0.00
2022-08-25T03:29:58.418Z,0.00
2022-08-25T03:30:58.393Z,0.00
2022-08-25T03:31:58.511Z,0.00
2022-08-25T03:32:58.426Z,0.00
2022-08-25T03:33:58.421Z,0.00
2022-08-25T03:34:58.347Z,0.00
2022-08-25T03:35:58.352Z,0.00
2022-08-25T03:36:58.521Z,0.00
2022-08-25T03:37:59.252Z,0.00
2022-08-25T03:38:58.341Z,0.00
2022-08-25T03:39:58.350Z,0.00
2022-08-25T03:40:58.303Z,0.00
2022-08-25T03:41:58.304Z,0.00
2022-08-25T03:42:58.264Z,0.00
2022-08-25T03:43:58.278Z,4.00
2022-08-25T03:44:58.228Z,4.00
2022-08-25T03:45:58.378Z,0.00
2022-08-25T03:46:58.210Z,4.00
2022-08-25T03:47:58.234Z,4.00
2022-08-25T03:48:58.890Z,4.00
2022-08-25T03:49:58.160Z,4.00
2022-08-25T03:50:58.880Z,4.00
2022-08-25T03:51:58.241Z,4.00
2022-08-25T03:52:58.103Z,4.00
2022-08-25T03:53:58.117Z,8.00
2022-08-25T03:54:58.097Z,8.00
2022-08-25T03:55:58.051Z,12.00
2022-08-25T03:56:58.090Z,12.00
2022-08-25T03:57:58.035Z,16.00
2022-08-25T03:58:58.038Z,20.00
2022-08-25T03:59:58.067Z,20.00
2022-08-25T04:00:58.019Z,24.00
2022-08-25T04:01:58.098Z,28.00
2022-08-25T04:02:57.998Z,32.00
2022-08-25T04:03:57.957Z,36.00
2022-08-25T04:04:57.970Z,44.00
2022-08-25T04:06:01.795Z,44.00
2022-08-25T04:06:57.912Z,56.00
2022-08-25T04:07:57.938Z,60.00
2022-08-25T04:08:57.882Z,68.00
2022-08-25T04:10:01.670Z,76.00
2022-08-25T04:10:57.851Z,84.00
2022-08-25T04:11:57.898Z,92.00
2022-08-25T04:12:57.879Z,104.00
2022-08-25T04:13:57.848Z,116.00
2022-08-25T04:14:57.804Z,124.00
2022-08-25T04:15:57.794Z,136.00
2022-08-25T04:16:57.838Z,148.00
2022-08-25T04:17:57.768Z,164.00
2022-08-25T04:18:57.790Z,180.00
2022-08-25T04:19:57.743Z,192.00
2022-08-25T04:20:57.822Z,208.00
2022-08-25T04:21:57.726Z,220.00
2022-08-25T04:22:59.404Z,240.00
2022-08-25T04:23:57.715Z,256.00
2022-08-25T04:24:57.701Z,272.00
2022-08-25T04:25:57.684Z,292.00
2022-08-25T04:26:57.659Z,308.00
2022-08-25T04:27:57.679Z,328.00
2022-08-25T04:28:57.795Z,344.00
2022-08-25T04:29:57.629Z,364.00
2022-08-25T04:30:57.669Z,380.00
2022-08-25T04:31:57.629Z,400.00
2022-08-25T04:32:57.587Z,420.00
2022-08-25T04:33:57.590Z,440.00
2022-08-25T04:34:57.540Z,460.00
2022-08-25T04:35:57.544Z,480.00
2022-08-25T04:36:57.507Z,500.00
2022-08-25T04:37:57.798Z,520.00
2022-08-25T04:38:57.483Z,540.00
2022-08-25T04:39:57.603Z,556.00
2022-08-25T04:40:57.480Z,580.00
2022-08-25T04:41:57.472Z,600.00
2022-08-25T04:42:57.721Z,620.00
2022-08-25T04:43:57.441Z,640.00
2022-08-25T04:44:57.420Z,656.00
2022-08-25T04:45:57.446Z,680.00
2022-08-25T04:46:57.405Z,696.00
2022-08-25T04:47:57.368Z,716.00
2022-08-25T04:48:57.350Z,736.00
2022-08-25T04:49:57.410Z,756.00
2022-08-25T04:50:57.353Z,776.00
2022-08-25T04:51:57.618Z,792.00
2022-08-25T04:52:57.318Z,812.00
2022-08-25T04:53:57.301Z,828.00
2022-08-25T04:54:57.265Z,848.00
2022-08-25T04:56:01.784Z,868.00
2022-08-25T04:56:58.968Z,884.00
2022-08-25T04:57:57.235Z,896.00
2022-08-25T04:58:57.226Z,916.00
2022-08-25T04:59:57.225Z,936.00
2022-08-25T05:00:57.285Z,952.00
2022-08-25T05:01:57.246Z,968.00
2022-08-25T05:02:57.280Z,984.00
2022-08-25T05:03:57.228Z,1000.00
2022-08-25T05:04:57.177Z,1016.00
2022-08-25T05:05:57.145Z,1032.00
2022-08-25T05:06:57.177Z,1048.00
2022-08-25T05:07:57.157Z,1068.00
2022-08-25T05:08:57.200Z,1080.00
2022-08-25T05:09:57.136Z,1096.00
2022-08-25T05:10:57.198Z,1112.00
2022-08-25T05:11:57.122Z,1124.00
2022-08-25T05:12:57.115Z,1140.00
2022-08-25T05:13:57.087Z,1156.00
2022-08-25T05:14:57.477Z,1168.00
2022-08-25T05:15:57.116Z,1184.00
2022-08-25T05:16:57.099Z,1200.00
2022-08-25T05:17:57.983Z,1212.00
2022-08-25T05:18:57.000Z,1228.00
2022-08-25T05:19:56.982Z,1240.00
2022-08-25T05:20:57.080Z,1252.00
2022-08-25T05:22:00.910Z,1268.00
2022-08-25T05:22:56.965Z,1276.00
2022-08-25T05:23:57.002Z,1292.00
2022-08-25T05:24:56.937Z,1304.00
2022-08-25T05:25:56.951Z,1316.00
2022-08-25T05:26:56.897Z,1328.00
2022-08-25T05:27:56.853Z,1336.00
2022-08-25T05:28:56.879Z,1352.00
2022-08-25T05:29:56.825Z,1360.00
2022-08-25T05:30:56.812Z,1372.00
2022-08-25T05:31:56.912Z,1384.00
2022-08-25T05:32:56.776Z,1396.00
2022-08-25T05:33:56.860Z,1404.00
2022-08-25T05:34:56.755Z,1416.00
2022-08-25T05:35:56.756Z,1428.00
2022-08-25T05:36:56.739Z,1440.00
2022-08-25T05:37:56.716Z,1448.00
2022-08-25T05:38:56.758Z,1460.00
2022-08-25T05:39:56.722Z,1468.00
2022-08-25T05:40:56.681Z,1480.00
2022-08-25T05:41:56.715Z,1488.00
2022-08-25T05:42:56.663Z,1500.00
2022-08-25T05:43:56.630Z,1512.00
2022-08-25T05:44:56.615Z,1520.00
2022-08-25T05:45:56.690Z,1528.00
2022-08-25T05:46:56.677Z,1536.00
2022-08-25T05:47:56.590Z,1548.00
2022-08-25T05:48:56.592Z,1556.00
2022-08-25T05:49:56.557Z,1564.00
2022-08-25T05:50:56.554Z,1572.00
2022-08-25T05:51:56.558Z,1580.00
2022-08-25T05:52:56.519Z,1592.00
2022-08-25T05:53:56.523Z,1604.00
2022-08-25T05:54:56.484Z,1612.00
2022-08-25T05:55:56.486Z,1624.00
2022-08-25T05:56:56.541Z,1628.00
2022-08-25T05:57:56.465Z,1644.00
2022-08-25T05:58:56.497Z,1656.00
2022-08-25T05:59:56.449Z,1660.00
2022-08-25T06:00:56.449Z,1672.00
2022-08-25T06:01:56.438Z,1684.00
2022-08-25T06:02:56.373Z,1688.00
2022-08-25T06:03:56.393Z,1704.00
2022-08-25T06:04:56.353Z,1712.00
2022-08-25T06:06:00.260Z,1720.00
2022-08-25T06:06:56.400Z,1732.00
2022-08-25T06:07:56.324Z,1736.00
2022-08-25T06:08:56.306Z,1752.00
2022-08-25T06:09:56.290Z,1764.00
2022-08-25T06:10:56.296Z,1772.00
2022-08-25T06:11:56.555Z,1788.00
2022-08-25T06:12:58.069Z,1800.00
2022-08-25T06:13:56.246Z,1816.00
2022-08-25T06:14:56.252Z,1816.00
2022-08-25T06:15:56.241Z,1824.00
2022-08-25T06:16:56.251Z,1844.00
2022-08-25T06:18:00.736Z,1856.00
2022-08-25T06:18:57.185Z,1868.00
2022-08-25T06:19:56.172Z,1872.00
2022-08-25T06:20:56.170Z,1888.00
2022-08-25T06:21:56.134Z,1900.00
2022-08-25T06:22:56.120Z,1904.00
2022-08-25T06:23:57.121Z,1936.00
2022-08-25T06:24:56.126Z,1956.00
2022-08-25T06:25:56.129Z,1924.00
2022-08-25T06:26:56.078Z,1952.00
2022-08-25T06:27:56.103Z,1948.00
2022-08-25T06:28:56.162Z,2084.00
2022-08-25T06:29:56.171Z,2128.00
2022-08-25T06:30:56.064Z,2144.00
2022-08-25T06:31:56.091Z,2536.00
2022-08-25T06:32:55.982Z,3268.00
2022-08-25T06:33:55.970Z,3144.00
2022-08-25T06:34:56.270Z,3004.00
2022-08-25T06:35:59.683Z,2948.00
2022-08-25T06:36:55.950Z,3044.00
2022-08-25T06:37:55.921Z,3508.00
2022-08-25T06:38:55.909Z,3536.00
2022-08-25T06:39:55.946Z,3580.00
2022-08-25T06:40:55.894Z,3316.00
2022-08-25T06:41:55.884Z,3404.00
2022-08-25T06:42:55.867Z,3748.00
2022-08-25T06:43:57.997Z,3484.00
2022-08-25T06:44:56.844Z,3888.00
2022-08-25T06:45:55.813Z,4064.00
2022-08-25T06:46:55.884Z,4016.00
2022-08-25T06:47:55.805Z,4340.00
2022-08-25T06:48:55.824Z,4404.00
2022-08-25T06:49:55.758Z,4416.00
2022-08-25T06:50:55.802Z,4252.00
2022-08-25T06:51:55.806Z,4632.00
2022-08-25T06:52:55.790Z,4540.00
2022-08-25T06:53:55.705Z,4756.00
2022-08-25T06:54:55.706Z,4536.00
2022-08-25T06:55:55.707Z,4604.00
2022-08-25T06:56:55.706Z,4532.00
2022-08-25T06:57:55.747Z,4336.00
2022-08-25T06:58:56.610Z,4612.00
2022-08-25T06:59:55.892Z,4624.00
2022-08-25T07:00:55.671Z,4656.00
2022-08-25T07:01:55.680Z,4772.00
2022-08-25T07:02:55.603Z,4784.00
2022-08-25T07:03:55.574Z,4928.00
2022-08-25T07:04:55.583Z,5132.00
2022-08-25T07:05:55.617Z,4912.00
2022-08-25T07:06:55.573Z,4852.00
2022-08-25T07:07:55.535Z,5280.00
2022-08-25T07:08:55.539Z,4996.00
2022-08-25T07:09:55.580Z,5460.00
2022-08-25T07:10:55.503Z,5424.00
2022-08-25T07:11:55.512Z,5376.00
2022-08-25T07:12:55.488Z,5540.00
2022-08-25T07:13:55.463Z,5688.00
2022-08-25T07:15:10.024Z,5364.00
2022-08-25T07:15:56.510Z,5400.00
2022-08-25T07:16:55.445Z,5564.00
2022-08-25T07:17:55.389Z,5412.00
2022-08-25T07:18:55.430Z,5492.00
2022-08-25T07:19:59.590Z,5672.00
2022-08-25T07:20:55.354Z,5916.00
2022-08-25T07:21:55.359Z,5720.00
2022-08-25T07:22:55.447Z,5720.00
2022-08-25T07:23:55.309Z,5712.00
2022-08-25T07:24:55.313Z,5544.00
2022-08-25T07:25:55.290Z,5856.00
2022-08-25T07:26:56.455Z,5736.00
2022-08-25T07:27:58.731Z,5804.00
2022-08-25T07:28:55.298Z,6240.00
2022-08-25T07:29:55.236Z,5580.00
2022-08-25T07:30:55.229Z,5788.00
2022-08-25T07:31:55.301Z,5920.00
2022-08-25T07:32:55.350Z,5696.00
2022-08-25T07:33:55.194Z,5924.00
2022-08-25T07:34:55.175Z,5748.00
2022-08-25T07:35:55.168Z,5836.00
2022-08-25T07:36:55.166Z,5832.00
2022-08-25T07:37:55.151Z,5668.00
2022-08-25T07:38:55.385Z,6136.00
2022-08-25T07:39:55.161Z,6128.00
2022-08-25T07:40:57.064Z,5704.00
2022-08-25T07:41:55.093Z,6332.00
2022-08-25T07:42:55.083Z,5524.00
2022-08-25T07:43:55.076Z,5868.00
2022-08-25T07:44:55.044Z,5836.00
2022-08-25T07:45:55.017Z,6180.00
2022-08-25T07:46:55.087Z,5904.00
2022-08-25T07:47:55.005Z,5844.00
2022-08-25T07:48:54.994Z,6360.00
2022-08-25T07:49:54.984Z,6360.00
2022-08-25T07:50:54.961Z,6084.00
2022-08-25T07:52:03.984Z,6092.00
2022-08-25T07:52:55.949Z,6460.00
2022-08-25T07:53:54.952Z,6784.00
2022-08-25T07:54:54.955Z,6536.00
2022-08-25T07:55:54.912Z,6376.00
2022-08-25T07:56:54.938Z,6068.00
2022-08-25T07:57:57.176Z,6940.00
2022-08-25T07:58:54.864Z,6904.00
2022-08-25T07:59:54.838Z,6940.00
2022-08-25T08:00:54.822Z,7412.00
2022-08-25T08:01:54.902Z,6884.00
2022-08-25T08:02:54.902Z,6324.00
2022-08-25T08:03:54.839Z,6196.00
2022-08-25T08:04:54.774Z,6064.00
2022-08-25T08:05:54.746Z,6952.00
2022-08-25T08:06:54.755Z,7180.00
2022-08-25T08:07:54.742Z,6788.00
2022-08-25T08:08:55.655Z,7356.00
2022-08-25T08:10:11.967Z,6764.00
2022-08-25T08:11:05.106Z,6104.00
2022-08-25T08:11:55.744Z,6428.00
2022-08-25T08:12:54.672Z,6360.00
2022-08-25T08:13:54.747Z,6032.00
2022-08-25T08:14:54.651Z,6664.00
2022-08-25T08:15:54.701Z,7740.00
2022-08-25T08:16:54.621Z,7592.00
2022-08-25T08:17:54.589Z,7948.00
2022-08-25T08:18:54.596Z,8172.00
2022-08-25T08:19:54.600Z,7800.00
2022-08-25T08:20:54.563Z,7780.00
2022-08-25T08:21:54.565Z,8196.00
2022-08-25T08:22:55.268Z,8184.00
2022-08-25T08:23:58.703Z,8032.00
2022-08-25T08:24:56.491Z,8272.00
2022-08-25T08:25:54.533Z,7948.00
2022-08-25T08:26:59.250Z,8468.00
2022-08-25T08:27:55.060Z,8160.00
2022-08-25T08:28:58.312Z,8520.00
2022-08-25T08:29:54.456Z,7920.00
2022-08-25T08:30:54.557Z,7832.00
2022-08-25T08:31:54.485Z,7932.00
2022-08-25T08:33:11.723Z,8496.00
2022-08-25T08:33:55.391Z,8492.00
2022-08-25T08:34:54.385Z,7924.00
2022-08-25T08:35:54.391Z,7844.00
2022-08-25T08:36:54.367Z,8160.00
2022-08-25T08:37:54.400Z,7712.00
2022-08-25T08:38:54.321Z,8008.00
2022-08-25T08:39:54.409Z,7860.00
2022-08-25T08:40:58.199Z,7884.00
2022-08-25T08:42:10.841Z,8796.00
2022-08-25T08:42:55.975Z,7800.00
2022-08-25T08:43:54.344Z,7880.00
2022-08-25T08:44:55.406Z,8124.00
2022-08-25T08:45:54.260Z,8684.00
2022-08-25T08:46:54.348Z,8760.00
2022-08-25T08:47:54.200Z,8764.00
2022-08-25T08:48:54.353Z,9056.00
2022-08-25T08:49:58.105Z,9500.00
2022-08-25T08:50:54.183Z,9872.00
2022-08-25T08:51:54.166Z,9920.00
2022-08-25T08:52:54.138Z,9500.00
2022-08-25T08:53:54.155Z,10080.00
2022-08-25T08:54:54.193Z,10204.00
2022-08-25T08:55:54.110Z,9428.00
2022-08-25T08:56:54.102Z,9768.00
2022-08-25T08:57:54.063Z,9472.00
2022-08-25T08:58:54.058Z,9340.00
2022-08-25T08:59:54.035Z,9968.00
2022-08-25T09:00:54.186Z,9012.00
2022-08-25T09:01:54.485Z,9284.00
2022-08-25T09:02:54.064Z,9496.00
2022-08-25T09:03:55.257Z,9756.00
2022-08-25T09:04:54.002Z,9980.00
2022-08-25T09:05:53.968Z,9536.00
2022-08-25T09:06:53.995Z,10316.00
2022-08-25T09:07:54.862Z,10092.00
2022-08-25T09:08:53.946Z,8680.00
2022-08-25T09:09:53.911Z,8712.00
2022-08-25T09:10:54.211Z,9176.00
2022-08-25T09:11:53.911Z,10172.00
2022-08-25T09:13:53.867Z,10844.00
2022-08-25T09:14:54.303Z,10896.00
2022-08-25T09:15:54.597Z,11156.00
2022-08-25T09:16:53.821Z,11184.00
2022-08-25T09:17:54.625Z,11860.00
2022-08-25T09:18:53.796Z,10684.00
2022-08-25T09:19:53.797Z,10924.00
2022-08-25T09:20:53.768Z,11128.00
2022-08-25T09:21:53.765Z,10944.00
2022-08-25T09:22:53.824Z,11324.00
2022-08-25T09:23:53.754Z,11336.00
2022-08-25T09:24:53.703Z,10232.00
2022-08-25T09:25:54.320Z,11456.00
2022-08-25T09:26:53.738Z,11640.00
2022-08-25T09:27:53.682Z,10960.00
2022-08-25T09:28:53.692Z,10816.00
2022-08-25T09:29:53.655Z,11408.00
2022-08-25T09:30:53.737Z,12360.00
2022-08-25T09:31:53.640Z,11216.00
2022-08-25T09:32:53.641Z,12076.00
2022-08-25T09:33:53.609Z,11556.00
2022-08-25T09:34:53.600Z,11784.00
2022-08-25T09:35:53.630Z,12272.00
2022-08-25T09:36:53.751Z,13008.00
2022-08-25T09:37:53.623Z,12668.00
2022-08-25T09:38:53.823Z,12484.00
2022-08-25T09:39:53.591Z,12176.00
2022-08-25T09:40:53.563Z,11640.00
2022-08-25T09:41:53.535Z,12364.00
2022-08-25T09:42:57.698Z,11840.00
2022-08-25T09:43:54.464Z,11092.00
2022-08-25T09:44:53.476Z,12184.00
2022-08-25T09:45:53.506Z,11040.00
2022-08-25T09:46:53.483Z,10964.00
2022-08-25T09:47:53.443Z,9252.00
2022-08-25T09:48:55.706Z,10316.00
2022-08-25T09:49:53.386Z,9708.00
2022-08-25T09:50:53.404Z,9028.00
2022-08-25T09:51:53.385Z,7364.00
2022-08-25T09:52:53.691Z,6288.00
2022-08-25T09:53:53.421Z,6756.00
2022-08-25T09:54:53.318Z,6368.00
2022-08-25T09:55:53.340Z,6016.00
2022-08-25T09:56:54.319Z,5796.00
2022-08-25T09:57:53.397Z,5848.00
2022-08-25T09:58:53.287Z,5976.00
2022-08-25T09:59:57.340Z,6072.00
2022-08-25T10:00:53.269Z,5632.00
2022-08-25T10:01:53.664Z,5624.00
2022-08-25T10:02:53.315Z,5612.00
2022-08-25T10:03:53.254Z,5524.00
2022-08-25T10:04:53.567Z,5604.00
2022-08-25T10:05:56.158Z,5616.00
2022-08-25T10:07:14.966Z,5652.00
2022-08-25T10:07:53.173Z,5816.00
2022-08-25T10:08:53.149Z,5976.00
2022-08-25T10:09:53.536Z,6344.00
2022-08-25T10:10:53.108Z,7304.00
2022-08-25T10:11:57.511Z,31584.00
2022-08-25T10:12:53.100Z,67168.00
2022-08-25T10:13:53.080Z,70752.00
2022-08-25T10:14:54.505Z,71232.00
2022-08-25T10:15:57.321Z,73600.00
2022-08-25T10:16:53.044Z,73120.00
2022-08-25T10:17:53.419Z,73408.00
2022-08-25T10:18:53.011Z,69504.00
2022-08-25T10:19:52.991Z,36992.00
2022-08-25T10:20:53.018Z,10720.00
2022-08-25T10:21:52.971Z,9188.00
2022-08-25T10:22:53.036Z,8720.00
2022-08-25T10:23:52.966Z,8256.00
2022-08-25T10:24:52.927Z,7708.00
2022-08-25T10:25:57.603Z,7216.00
2022-08-25T10:26:53.914Z,6868.00
2022-08-25T10:27:53.015Z,6624.00
2022-08-25T10:28:52.969Z,6840.00
2022-08-25T10:29:52.954Z,7000.00
2022-08-25T10:30:52.899Z,6720.00
2022-08-25T10:31:52.826Z,6456.00
2022-08-25T10:32:52.853Z,6604.00
2022-08-25T10:33:52.812Z,6624.00
2022-08-25T10:34:52.828Z,6660.00
2022-08-25T10:35:52.831Z,6688.00
2022-08-25T10:36:52.821Z,6760.00
2022-08-25T10:37:52.867Z,6800.00
2022-08-25T10:38:52.790Z,6768.00
2022-08-25T10:39:55.382Z,6696.00
2022-08-25T10:40:52.753Z,6840.00
2022-08-25T10:41:53.637Z,6908.00
2022-08-25T10:42:52.792Z,6836.00
2022-08-25T10:43:52.678Z,6920.00
2022-08-25T10:44:52.666Z,7196.00
2022-08-25T10:45:52.728Z,7320.00
2022-08-25T10:46:52.664Z,7248.00
2022-08-25T10:47:52.930Z,7248.00
2022-08-25T10:48:52.635Z,7184.00
2022-08-25T10:49:52.603Z,7152.00
2022-08-25T10:50:52.605Z,7188.00
2022-08-25T10:51:52.645Z,7236.00
2022-08-25T10:52:52.660Z,7376.00
2022-08-25T10:53:52.552Z,7484.00
2022-08-25T10:54:52.572Z,7832.00
2022-08-25T10:55:52.546Z,8968.00
2022-08-25T10:56:53.212Z,8632.00
2022-08-25T10:57:52.511Z,8204.00
2022-08-25T10:58:52.488Z,8160.00
2022-08-25T10:59:52.502Z,8280.00
2022-08-25T11:00:52.522Z,7644.00
2022-08-25T11:01:53.517Z,8804.00
2022-08-25T11:02:52.507Z,10472.00
2022-08-25T11:03:52.521Z,31712.00
2022-08-25T11:04:52.493Z,59008.00
2022-08-25T11:05:52.411Z,62624.00
2022-08-25T11:06:54.790Z,63648.00
2022-08-25T11:07:52.386Z,48544.00
2022-08-25T11:08:52.400Z,18752.00
2022-08-25T11:09:52.346Z,15296.00
2022-08-25T11:10:52.384Z,13364.00
2022-08-25T11:11:52.342Z,8804.00
2022-08-25T11:12:52.338Z,12928.00
2022-08-25T11:13:52.319Z,8716.00
2022-08-25T11:14:52.337Z,14312.00
2022-08-25T11:16:15.517Z,14032.00
2022-08-25T11:16:53.285Z,11688.00
2022-08-25T11:17:52.304Z,14208.00
2022-08-25T11:18:52.238Z,13996.00
2022-08-25T11:19:52.230Z,14416.00
2022-08-25T11:20:52.225Z,14336.00
2022-08-25T11:21:52.223Z,14432.00
2022-08-25T11:22:52.201Z,15584.00
2022-08-25T11:23:52.194Z,14512.00
2022-08-25T11:24:52.197Z,14056.00
2022-08-25T11:25:52.150Z,9376.00
2022-08-25T11:26:52.258Z,12512.00
2022-08-25T11:27:52.150Z,13152.00
2022-08-25T11:28:52.124Z,12576.00
2022-08-25T11:29:52.409Z,11276.00
2022-08-25T11:30:52.669Z,10360.00
2022-08-25T11:31:53.775Z,10072.00
2022-08-25T11:32:52.079Z,10292.00
2022-08-25T11:33:52.061Z,10500.00
2022-08-25T11:34:52.031Z,10772.00
2022-08-25T11:35:52.022Z,10700.00
2022-08-25T11:36:52.012Z,10684.00
2022-08-25T11:37:52.014Z,9640.00
2022-08-25T11:38:51.977Z,9112.00
2022-08-25T11:39:52.013Z,12240.00
2022-08-25T11:40:52.016Z,12268.00
2022-08-25T11:41:51.974Z,12932.00
2022-08-25T11:42:51.949Z,14472.00
2022-08-25T11:43:51.913Z,35392.00
2022-08-25T11:44:53.721Z,9068.00
2022-08-25T11:45:54.110Z,18304.00
2022-08-25T11:46:51.924Z,70560.00
2022-08-25T11:47:51.875Z,69728.00
2022-08-25T11:48:51.855Z,9292.00
2022-08-25T11:49:51.845Z,7912.00
2022-08-25T11:50:51.821Z,36480.00
2022-08-25T11:51:51.828Z,13828.00
2022-08-25T11:52:51.823Z,9592.00
2022-08-25T11:53:51.831Z,12832.00
2022-08-25T11:54:51.784Z,70080.00
2022-08-25T11:55:51.784Z,71264.00
2022-08-25T11:56:51.804Z,72448.00
2022-08-25T11:57:53.876Z,54688.00
2022-08-25T11:58:51.730Z,43808.00
2022-08-25T11:59:51.704Z,73472.00
2022-08-25T12:00:51.698Z,13028.00
2022-08-25T12:01:51.718Z,12432.00
2022-08-25T12:02:51.709Z,11444.00
2022-08-25T12:03:51.806Z,11084.00
2022-08-25T12:04:53.048Z,11120.00
2022-08-25T12:05:51.638Z,9832.00
2022-08-25T12:06:52.951Z,9816.00
2022-08-25T12:07:51.621Z,44128.00
2022-08-25T12:08:51.608Z,55936.00
2022-08-25T12:09:51.597Z,55808.00
2022-08-25T12:10:51.566Z,59232.00
2022-08-25T12:11:51.551Z,63904.00
2022-08-25T12:12:51.577Z,63584.00
2022-08-25T12:13:51.533Z,65376.00
2022-08-25T12:14:51.575Z,63552.00
2022-08-25T12:15:51.507Z,37152.00
2022-08-25T12:16:51.587Z,19136.00
2022-08-25T12:17:51.603Z,17664.00
2022-08-25T12:18:51.483Z,17184.00
2022-08-25T12:19:51.494Z,18048.00
2022-08-25T12:20:51.486Z,14796.00
2022-08-25T12:21:51.450Z,11712.00
2022-08-25T12:22:51.483Z,18144.00
2022-08-25T12:23:53.283Z,9140.00
2022-08-25T12:24:51.411Z,8432.00
2022-08-25T12:25:51.384Z,9376.00
2022-08-25T12:26:51.374Z,16416.00